Patterson Springs, North Carolina
Current Conditions -  °F | °C
As of 11:35 AM on Tuesday 21 Oct 2014 (Local Time) from KEHO Reporting Station
Clear Clear  
Wind Chill: 66°   Ceiling: Unl
Heat Index: 66°   Visibility: 10mi
Dew Point: 50°   Wind: 7mph
Humidity: 55%   Direction: 280°W
Pressure: 29.95"   Gusts: NA
Location:  35.3693°N, 81.5992°W
Report Text: KEHO 211535Z AUTO 28006KT 10SM CLR 19/10 A2995 RMK AO2 T01910099
Loading
Personal Weather Stations






























Interactive Weather Map
Tropical Storm Tracking
New forecast layout! Learn more

10-Day Weather Forecast

Advertisements
Track Severe Weather on mobile